Time;durP1;ratioP1;P1;durP2;ratioP2;P2;SDS_P1;SDS_P2;PMS_P1;PMS_P2;Temp;Humidity;BMP_temperature;BMP_pressure;BME280_temperature;BME280_humidity;BME280_pressure;Samples;Min_cycle;Max_cycle;Signal;HPM_P1;HPM_P2
2022/06/08 00:00:30;;;;;;;17.13;3.22;;;;;;;;;;5070838;28;20044;-60
2022/06/08 00:03:02;;;;;;;10.02;3.42;;;;;;;;;;5059429;28;20400;-60
2022/06/08 00:05:28;;;;;;;15.88;4.47;;;;;;;;;;5070819;28;20059;-60
2022/06/08 00:07:54;;;;;;;11.00;3.78;;;;;;;;;;5073905;28;20064;-60
2022/06/08 00:10:20;;;;;;;14.98;4.05;;;;;;;;;;5058580;28;20031;-60
2022/06/08 00:12:46;;;;;;;13.73;3.60;;;;;;;;;;5054982;28;20427;-60
2022/06/08 00:15:13;;;;;;;13.15;4.22;;;;;;;;;;5061172;28;20468;-60
2022/06/08 00:17:39;;;;;;;14.25;4.05;;;;;;;;;;5074293;28;20032;-60
2022/06/08 00:20:06;;;;;;;18.77;4.45;;;;;;;;;;5069585;28;20044;-60
2022/06/08 00:22:32;;;;;;;22.90;4.55;;;;;;;;;;5067919;28;20028;-60
2022/06/08 00:24:58;;;;;;;18.60;4.22;;;;;;;;;;5058685;28;20016;-60
2022/06/08 00:27:24;;;;;;;20.77;4.32;;;;;;;;;;5074063;28;20143;-60
2022/06/08 00:29:50;;;;;;;19.13;4.57;;;;;;;;;;5073242;28;20033;-60
2022/06/08 00:32:18;;;;;;;18.50;4.07;;;;;;;;;;5072717;28;20065;-60
2022/06/08 00:34:44;;;;;;;18.70;4.28;;;;;;;;;;5071909;28;20031;-59
2022/06/08 00:37:11;;;;;;;15.15;3.67;;;;;;;;;;5073069;28;20029;-59
2022/06/08 00:39:37;;;;;;;10.82;4.30;;;;;;;;;;5058056;28;20086;-60
2022/06/08 00:42:05;;;;;;;17.13;3.95;;;;;;;;;;5058357;28;20025;-59
2022/06/08 00:44:31;;;;;;;16.00;3.88;;;;;;;;;;5058705;28;20036;-60
2022/06/08 00:46:58;;;;;;;16.75;3.63;;;;;;;;;;5055222;28;20114;-59
2022/06/08 00:49:29;;;;;;;20.85;4.13;;;;;;;;;;5073140;28;20044;-59
2022/06/08 00:51:58;;;;;;;16.77;3.42;;;;;;;;;;5064852;28;20067;-60
2022/06/08 00:54:38;;;;;;;12.57;3.33;;;;;;;;;;5074185;28;20051;-60
2022/06/08 00:57:10;;;;;;;13.73;3.65;;;;;;;;;;5054494;28;20103;-59
2022/06/08 00:59:38;;;;;;;15.40;3.13;;;;;;;;;;5054236;28;20040;-59
2022/06/08 01:02:04;;;;;;;18.98;4.32;;;;;;;;;;5053899;28;20091;-60
2022/06/08 01:04:31;;;;;;;16.02;3.90;;;;;;;;;;5052918;28;20025;-60
2022/06/08 01:06:58;;;;;;;19.08;3.80;;;;;;;;;;5053963;28;20461;-60
2022/06/08 01:09:30;;;;;;;24.13;5.47;;;;;;;;;;5052451;28;20087;-59
2022/06/08 01:11:58;;;;;;;26.02;4.38;;;;;;;;;;5060201;28;20033;-59
2022/06/08 01:14:25;;;;;;;17.30;4.53;;;;;;;;;;5052594;28;20045;-59
2022/06/08 01:16:54;;;;;;;18.92;3.67;;;;;;;;;;5052596;28;20029;-59
2022/06/08 01:19:22;;;;;;;16.73;3.95;;;;;;;;;;5052472;28;20542;-59
2022/06/08 01:21:49;;;;;;;17.05;4.60;;;;;;;;;;5060798;28;20013;-60
2022/06/08 01:24:22;;;;;;;18.00;3.97;;;;;;;;;;5071927;28;20032;-60
2022/06/08 01:26:57;;;;;;;22.05;4.47;;;;;;;;;;5056023;28;20112;-60
2022/06/08 01:29:26;;;;;;;15.55;3.85;;;;;;;;;;5061346;28;20591;-60
2022/06/08 01:32:07;;;;;;;17.67;4.18;;;;;;;;;;5053509;28;20036;-59
2022/06/08 01:34:37;;;;;;;20.63;4.32;;;;;;;;;;5052092;28;20082;-60
2022/06/08 01:37:03;;;;;;;13.68;3.83;;;;;;;;;;5053310;28;20024;-60
2022/06/08 01:39:35;;;;;;;18.55;3.90;;;;;;;;;;5054402;28;20095;-59
2022/06/08 01:42:08;;;;;;;22.65;3.83;;;;;;;;;;5061306;28;20032;-60
2022/06/08 01:44:41;;;;;;;18.50;4.10;;;;;;;;;;5059645;28;20028;-60
2022/06/08 01:47:14;;;;;;;20.23;3.78;;;;;;;;;;5061198;28;20074;-60
2022/06/08 01:49:55;;;;;;;20.73;3.70;;;;;;;;;;5054594;28;20078;-60
2022/06/08 01:52:30;;;;;;;25.52;4.22;;;;;;;;;;5064315;28;20029;-60
2022/06/08 01:55:04;;;;;;;16.40;4.68;;;;;;;;;;5071339;28;20029;-60
2022/06/08 01:57:35;;;;;;;20.75;4.03;;;;;;;;;;5061230;28;20051;-60
2022/06/08 02:00:09;;;;;;;21.20;4.00;;;;;;;;;;5071493;28;20452;-60
2022/06/08 02:02:56;;;;;;;20.55;5.18;;;;;;;;;;5071038;28;20025;-60
2022/06/08 02:05:36;;;;;;;20.17;4.68;;;;;;;;;;5071587;28;20028;-60
2022/06/08 02:08:16;;;;;;;20.15;3.85;;;;;;;;;;5053298;28;20030;-60
2022/06/08 02:10:46;;;;;;;15.40;4.28;;;;;;;;;;5059111;28;20476;-60
2022/06/08 02:13:17;;;;;;;21.27;4.28;;;;;;;;;;5057445;28;20103;-60
2022/06/08 02:15:46;;;;;;;22.45;4.72;;;;;;;;;;5051218;28;20071;-60
2022/06/08 02:18:17;;;;;;;23.98;4.70;;;;;;;;;;5051184;28;20032;-60
2022/06/08 02:20:46;;;;;;;22.95;4.68;;;;;;;;;;5051419;28;20121;-60
2022/06/08 02:23:17;;;;;;;25.60;3.58;;;;;;;;;;5069682;28;20492;-59
2022/06/08 02:25:49;;;;;;;27.17;4.15;;;;;;;;;;5064435;28;20528;-60
2022/06/08 02:28:21;;;;;;;19.20;3.55;;;;;;;;;;5050594;28;20112;-60
2022/06/08 02:30:50;;;;;;;23.20;4.07;;;;;;;;;;5051238;28;20029;-60
2022/06/08 02:36:12;;;;;;;14.27;4.05;;;;;;;;;;5065372;28;20045;-60
2022/06/08 02:38:41;;;;;;;17.38;3.83;;;;;;;;;;5071108;28;20507;-60
2022/06/08 02:41:08;;;;;;;17.20;3.78;;;;;;;;;;5069127;28;20021;-60
2022/06/08 02:43:41;;;;;;;21.38;4.45;;;;;;;;;;5050963;28;20447;-60
2022/06/08 02:46:24;;;;;;;21.15;4.50;;;;;;;;;;5050929;28;20564;-60
2022/06/08 02:48:53;;;;;;;17.20;4.30;;;;;;;;;;5051131;28;20044;-60
2022/06/08 02:51:41;;;;;;;21.15;3.95;;;;;;;;;;5057132;28;20040;-60
2022/06/08 02:54:13;;;;;;;20.70;4.10;;;;;;;;;;5050698;28;20037;-59
2022/06/08 02:56:43;;;;;;;24.70;4.10;;;;;;;;;;5050473;28;20404;-60
2022/06/08 02:59:21;;;;;;;21.88;4.00;;;;;;;;;;5050622;28;20382;-60
2022/06/08 03:01:52;;;;;;;19.52;4.25;;;;;;;;;;5050867;28;20501;-60
2022/06/08 03:04:21;;;;;;;18.77;4.38;;;;;;;;;;5050228;28;20029;-60
2022/06/08 03:06:53;;;;;;;18.08;3.75;;;;;;;;;;5064521;28;20021;-60
2022/06/08 03:09:20;;;;;;;13.20;3.72;;;;;;;;;;5053533;28;20040;-59
2022/06/08 03:11:49;;;;;;;15.90;3.83;;;;;;;;;;5050588;28;20068;-59
2022/06/08 03:14:16;;;;;;;12.52;4.07;;;;;;;;;;5062004;28;20029;-60
2022/06/08 03:16:52;;;;;;;23.52;4.50;;;;;;;;;;5069511;28;20492;-60
2022/06/08 03:19:19;;;;;;;27.63;4.25;;;;;;;;;;5069987;28;20173;-59
2022/06/08 03:21:46;;;;;;;17.45;4.28;;;;;;;;;;5058120;28;20028;-60
2022/06/08 03:24:13;;;;;;;21.65;4.20;;;;;;;;;;5054657;28;20029;-59
2022/06/08 03:26:43;;;;;;;24.63;5.32;;;;;;;;;;5053304;28;20052;-59
2022/06/08 03:29:09;;;;;;;18.50;4.18;;;;;;;;;;5070576;28;20028;-60
2022/06/08 03:31:36;;;;;;;27.38;3.85;;;;;;;;;;5069282;28;20060;-60
2022/06/08 03:34:04;;;;;;;31.92;4.65;;;;;;;;;;5060865;28;20028;-59
2022/06/08 03:36:30;;;;;;;23.52;5.28;;;;;;;;;;5051697;28;20021;-60
2022/06/08 03:38:58;;;;;;;26.50;4.80;;;;;;;;;;5063884;28;20518;-60
2022/06/08 03:41:24;;;;;;;22.38;4.47;;;;;;;;;;5063101;28;20042;-60
2022/06/08 03:43:50;;;;;;;23.70;3.92;;;;;;;;;;5063664;28;20484;-60
2022/06/08 03:46:18;;;;;;;21.35;3.88;;;;;;;;;;5062146;28;20024;-60
2022/06/08 03:48:45;;;;;;;20.88;4.35;;;;;;;;;;5073232;28;20029;-60
2022/06/08 03:51:13;;;;;;;25.67;5.35;;;;;;;;;;5069331;28;20032;-62
2022/06/08 03:53:44;;;;;;;23.58;4.57;;;;;;;;;;5068343;28;20031;-65
2022/06/08 03:56:10;;;;;;;33.17;4.38;;;;;;;;;;5061805;28;20028;-66
2022/06/08 03:58:37;;;;;;;16.98;4.15;;;;;;;;;;5067480;28;20052;-65
2022/06/08 04:01:09;;;;;;;19.25;3.95;;;;;;;;;;5068516;28;20033;-65
2022/06/08 04:03:37;;;;;;;26.50;5.55;;;;;;;;;;5068341;28;20025;-66
2022/06/08 04:06:04;;;;;;;25.50;4.80;;;;;;;;;;5069142;28;20166;-65
2022/06/08 04:08:36;;;;;;;27.48;5.80;;;;;;;;;;5059496;28;20123;-65
2022/06/08 04:11:02;;;;;;;23.90;4.32;;;;;;;;;;5069814;28;20416;-62
2022/06/08 04:13:29;;;;;;;23.25;4.30;;;;;;;;;;5058331;28;20029;-68
2022/06/08 04:16:03;;;;;;;25.63;4.03;;;;;;;;;;5061173;28;20492;-62
2022/06/08 04:18:39;;;;;;;18.40;3.25;;;;;;;;;;5074383;28;20130;-62
2022/06/08 04:21:08;;;;;;;24.45;4.07;;;;;;;;;;5070510;28;20116;-68
2022/06/08 04:23:40;;;;;;;24.90;3.78;;;;;;;;;;5065053;28;20503;-68
2022/06/08 04:26:08;;;;;;;23.65;4.25;;;;;;;;;;5065591;28;20021;-66
2022/06/08 04:28:35;;;;;;;27.85;3.58;;;;;;;;;;5056137;28;20401;-65
2022/06/08 04:31:06;;;;;;;25.63;3.50;;;;;;;;;;5071750;28;20074;-70
2022/06/08 04:33:35;;;;;;;16.05;4.10;;;;;;;;;;5056940;28;20492;-63
2022/06/08 04:36:05;;;;;;;17.00;4.18;;;;;;;;;;5060218;28;20061;-63
2022/06/08 04:38:31;;;;;;;21.45;3.88;;;;;;;;;;5054399;28;20091;-63
2022/06/08 04:40:58;;;;;;;18.88;3.47;;;;;;;;;;5066022;28;20025;-63
2022/06/08 04:43:24;;;;;;;21.50;3.97;;;;;;;;;;5063907;28;20399;-63
2022/06/08 04:45:52;;;;;;;25.25;3.47;;;;;;;;;;5051889;28;20036;-63
2022/06/08 04:48:19;;;;;;;25.75;4.13;;;;;;;;;;5057574;28;20040;-63
2022/06/08 04:50:46;;;;;;;23.80;4.38;;;;;;;;;;5052846;28;20060;-63
2022/06/08 04:53:12;;;;;;;18.55;3.85;;;;;;;;;;5069273;28;20055;-63
2022/06/08 04:55:41;;;;;;;34.70;5.10;;;;;;;;;;5057878;28;20020;-63
2022/06/08 04:58:07;;;;;;;24.00;3.50;;;;;;;;;;5058355;28;20041;-63
2022/06/08 05:00:34;;;;;;;24.20;5.03;;;;;;;;;;5062326;28;20122;-63
2022/06/08 05:03:04;;;;;;;23.52;3.72;;;;;;;;;;5072571;28;20515;-63
2022/06/08 05:05:38;;;;;;;20.77;4.07;;;;;;;;;;5058543;28;20078;-63
2022/06/08 05:08:09;;;;;;;14.85;3.97;;;;;;;;;;5068758;28;20039;-63
2022/06/08 05:10:38;;;;;;;21.25;4.45;;;;;;;;;;5056560;28;20039;-63
2022/06/08 05:13:07;;;;;;;25.23;4.00;;;;;;;;;;5066077;28;20032;-63
2022/06/08 05:15:36;;;;;;;17.35;3.38;;;;;;;;;;5055143;28;20116;-63
2022/06/08 05:18:03;;;;;;;23.13;4.40;;;;;;;;;;5058230;28;20047;-63
2022/06/08 05:20:32;;;;;;;21.40;3.53;;;;;;;;;;5069116;28;20032;-63
2022/06/08 05:22:59;;;;;;;22.80;4.20;;;;;;;;;;5059841;28;20036;-63
2022/06/08 05:25:28;;;;;;;19.95;4.32;;;;;;;;;;5070420;28;20082;-63
2022/06/08 05:27:55;;;;;;;18.92;3.28;;;;;;;;;;5057885;28;20038;-63
2022/06/08 05:30:22;;;;;;;16.38;3.40;;;;;;;;;;5057421;28;20024;-63
2022/06/08 05:32:48;;;;;;;20.15;3.83;;;;;;;;;;5060474;28;20020;-63
2022/06/08 05:35:16;;;;;;;30.80;4.95;;;;;;;;;;5060185;28;20028;-63
2022/06/08 05:37:43;;;;;;;16.73;5.10;;;;;;;;;;5059140;28;20133;-63
2022/06/08 05:40:10;;;;;;;17.35;4.00;;;;;;;;;;5054923;28;20078;-63
2022/06/08 05:42:37;;;;;;;18.73;3.65;;;;;;;;;;5056131;28;20059;-63
2022/06/08 05:45:05;;;;;;;27.02;4.78;;;;;;;;;;5063836;28;20035;-64
2022/06/08 05:47:31;;;;;;;19.25;4.50;;;;;;;;;;5055056;28;20066;-64
2022/06/08 05:49:58;;;;;;;22.08;3.85;;;;;;;;;;5072075;28;20391;-64
2022/06/08 05:52:25;;;;;;;17.38;3.80;;;;;;;;;;5073647;28;20024;-64
2022/06/08 05:54:52;;;;;;;28.45;4.28;;;;;;;;;;5071756;28;20029;-64
2022/06/08 05:57:20;;;;;;;21.38;3.78;;;;;;;;;;5054977;28;20076;-64
2022/06/08 05:59:46;;;;;;;30.27;4.30;;;;;;;;;;5061724;28;20036;-64
2022/06/08 06:02:13;;;;;;;25.63;4.63;;;;;;;;;;5056929;28;20024;-64
2022/06/08 06:04:40;;;;;;;21.90;4.13;;;;;;;;;;5066975;28;20031;-64
2022/06/08 06:07:07;;;;;;;24.90;4.65;;;;;;;;;;5052103;28;20047;-64
2022/06/08 06:09:34;;;;;;;22.27;3.70;;;;;;;;;;5059589;28;20021;-64
2022/06/08 06:12:00;;;;;;;23.48;4.60;;;;;;;;;;5053068;28;20460;-64
2022/06/08 06:14:33;;;;;;;;;;;;;;;;;;5050874;28;20035;-64
2022/06/08 06:17:00;;;;;;;27.17;3.95;;;;;;;;;;5059215;28;19923;-64
2022/06/08 06:19:26;;;;;;;21.58;4.72;;;;;;;;;;5058011;28;20437;-64
2022/06/08 06:22:11;;;;;;;26.27;4.18;;;;;;;;;;5055276;28;20147;-64
2022/06/08 06:24:55;;;;;;;31.98;4.28;;;;;;;;;;5056192;28;20047;-64
2022/06/08 06:27:50;;;;;;;24.80;4.05;;;;;;;;;;5023196;28;20144;-64
2022/06/08 06:30:45;;;;;;;22.17;4.03;;;;;;;;;;5021123;28;20022;-64
2022/06/08 06:33:24;;;;;;;22.60;4.68;;;;;;;;;;5010268;28;20030;-64
2022/06/08 06:35:51;;;;;;;23.15;4.50;;;;;;;;;;5021595;28;20033;-64
2022/06/08 06:38:17;;;;;;;18.58;3.75;;;;;;;;;;5027685;28;20038;-62
2022/06/08 06:40:44;;;;;;;19.55;3.90;;;;;;;;;;5008718;28;20500;-62
2022/06/08 06:43:12;;;;;;;19.73;3.30;;;;;;;;;;5003654;28;20602;-63
2022/06/08 06:45:41;;;;;;;22.10;3.72;;;;;;;;;;5020834;28;20029;-63
2022/06/08 06:48:31;;;;;;;26.17;3.92;;;;;;;;;;5017538;28;20046;-62
2022/06/08 06:51:01;;;;;;;28.77;5.03;;;;;;;;;;5004463;28;20620;-62
2022/06/08 06:53:27;;;;;;;28.75;5.38;;;;;;;;;;5004594;28;20022;-63
2022/06/08 06:55:56;;;;;;;23.17;4.60;;;;;;;;;;5004705;28;20030;-62
2022/06/08 06:58:37;;;;;;;19.15;3.78;;;;;;;;;;5017228;28;20046;-63
2022/06/08 07:01:05;;;;;;;20.77;4.35;;;;;;;;;;5005674;28;20099;-63
2022/06/08 07:03:32;;;;;;;26.30;4.80;;;;;;;;;;5020484;28;20029;-63
2022/06/08 07:05:59;;;;;;;26.48;4.00;;;;;;;;;;5054381;28;20028;-63
2022/06/08 07:08:26;;;;;;;26.05;3.55;;;;;;;;;;5061829;28;20024;-63
2022/06/08 07:13:41;;;;;;;19.50;3.97;;;;;;;;;;5060346;28;20459;-63
2022/06/08 07:16:09;;;;;;;21.63;3.42;;;;;;;;;;5056900;28;20035;-63
2022/06/08 07:18:36;;;;;;;28.65;4.03;;;;;;;;;;5064741;28;20029;-63
2022/06/08 07:21:03;;;;;;;24.52;3.97;;;;;;;;;;5065973;28;20068;-63
2022/06/08 07:23:29;;;;;;;29.05;4.65;;;;;;;;;;5064541;28;20029;-63
2022/06/08 07:25:55;;;;;;;20.92;4.10;;;;;;;;;;5069526;28;20044;-62
2022/06/08 07:28:22;;;;;;;17.55;3.38;;;;;;;;;;5062838;28;20041;-63
2022/06/08 07:30:48;;;;;;;24.55;3.63;;;;;;;;;;5060909;28;20496;-63
2022/06/08 07:33:14;;;;;;;23.23;4.60;;;;;;;;;;5067014;28;20020;-63
2022/06/08 07:35:41;;;;;;;21.42;4.93;;;;;;;;;;5058115;28;20096;-63
2022/06/08 07:38:08;;;;;;;25.58;4.65;;;;;;;;;;5064916;28;20048;-63
2022/06/08 07:40:34;;;;;;;31.40;4.50;;;;;;;;;;5060217;28;20040;-63
2022/06/08 07:43:00;;;;;;;35.92;3.97;;;;;;;;;;5066741;28;20025;-63
2022/06/08 07:45:26;;;;;;;24.52;3.42;;;;;;;;;;5060451;28;20029;-63
2022/06/08 07:50:37;;;;;;;18.42;3.35;;;;;;;;;;5063321;28;20042;-63
2022/06/08 07:53:03;;;;;;;20.63;3.45;;;;;;;;;;5065711;28;20021;-64
2022/06/08 07:55:30;;;;;;;25.45;3.80;;;;;;;;;;5059529;28;20025;-65
2022/06/08 07:57:57;;;;;;;26.08;3.47;;;;;;;;;;5062201;28;20037;-65
2022/06/08 08:00:23;;;;;;;20.40;4.43;;;;;;;;;;5062578;28;20025;-64
2022/06/08 08:02:49;;;;;;;25.35;4.65;;;;;;;;;;5063145;28;20024;-65
2022/06/08 08:05:16;;;;;;;23.25;3.97;;;;;;;;;;5060478;28;21746;-65
2022/06/08 08:07:42;;;;;;;22.92;3.28;;;;;;;;;;5060241;28;20025;-65
2022/06/08 08:10:13;;;;;;;19.02;3.25;;;;;;;;;;5059019;28;20039;-65
2022/06/08 08:12:39;;;;;;;18.25;3.00;;;;;;;;;;5062252;28;20025;-65
2022/06/08 08:15:05;;;;;;;20.85;3.90;;;;;;;;;;5060575;28;20041;-65
2022/06/08 08:17:32;;;;;;;18.67;4.35;;;;;;;;;;5060961;28;20485;-65
2022/06/08 08:19:58;;;;;;;21.02;3.28;;;;;;;;;;5057859;28;20100;-64
2022/06/08 08:22:24;;;;;;;26.70;3.92;;;;;;;;;;5061229;28;20024;-65
2022/06/08 08:24:50;;;;;;;21.13;4.32;;;;;;;;;;5061016;28;20036;-65
2022/06/08 08:27:16;;;;;;;28.58;4.07;;;;;;;;;;5064191;28;20489;-64
2022/06/08 08:29:42;;;;;;;21.77;3.70;;;;;;;;;;5059421;28;20029;-64
2022/06/08 08:32:10;;;;;;;26.13;5.03;;;;;;;;;;5059478;28;20021;-65
2022/06/08 08:34:37;;;;;;;19.77;3.90;;;;;;;;;;5059645;28;20036;-65
2022/06/08 08:37:03;;;;;;;23.88;3.80;;;;;;;;;;5058452;28;20032;-65
2022/06/08 08:39:30;;;;;;;20.25;3.20;;;;;;;;;;5057657;28;20029;-65
2022/06/08 08:44:45;;;;;;;27.25;4.13;;;;;;;;;;5061663;28;20499;-63
2022/06/08 08:47:30;;;;;;;17.55;3.47;;;;;;;;;;5058240;28;20025;-64
2022/06/08 08:49:57;;;;;;;20.73;3.67;;;;;;;;;;5061276;28;20368;-64
2022/06/08 08:52:26;;;;;;;24.10;3.67;;;;;;;;;;5059654;28;20029;-63
2022/06/08 08:55:02;;;;;;;22.08;4.70;;;;;;;;;;5062096;28;20020;-63
2022/06/08 08:57:37;;;;;;;18.70;3.72;;;;;;;;;;5059317;28;20049;-63
2022/06/08 09:00:25;;;;;;;24.45;3.60;;;;;;;;;;5060495;28;20016;-63
2022/06/08 09:05:37;;;;;;;24.95;3.65;;;;;;;;;;5060617;28;20029;-63
2022/06/08 09:08:03;;;;;;;21.42;4.10;;;;;;;;;;5060261;28;20029;-63
2022/06/08 09:10:29;;;;;;;21.65;3.63;;;;;;;;;;5060582;28;20462;-63
2022/06/08 09:12:56;;;;;;;23.30;4.43;;;;;;;;;;5062435;28;20037;-63
2022/06/08 09:15:47;;;;;;;25.80;3.17;;;;;;;;;;5058564;28;20024;-63
2022/06/08 09:18:18;;;;;;;25.00;4.30;;;;;;;;;;5068826;28;20075;-63
2022/06/08 09:20:44;;;;;;;20.20;3.95;;;;;;;;;;5059054;28;20037;-63
2022/06/08 09:23:22;;;;;;;23.67;3.60;;;;;;;;;;5062113;28;20040;-63
2022/06/08 09:26:01;;;;;;;17.83;3.47;;;;;;;;;;5058193;28;20079;-63
2022/06/08 09:28:29;;;;;;;21.55;3.15;;;;;;;;;;5058220;28;20484;-63
2022/06/08 09:30:56;;;;;;;16.40;3.13;;;;;;;;;;5059380;28;20081;-63
2022/06/08 09:33:32;;;;;;;32.45;4.90;;;;;;;;;;5063019;28;20031;-63
2022/06/08 09:36:02;;;;;;;25.00;3.50;;;;;;;;;;5061704;28;20060;-63
2022/06/08 09:38:30;;;;;;;27.30;3.50;;;;;;;;;;5061360;28;20111;-63
2022/06/08 09:41:17;;;;;;;18.77;4.32;;;;;;;;;;5059991;28;20025;-63
2022/06/08 09:43:46;;;;;;;25.58;3.95;;;;;;;;;;5057236;28;20032;-63
2022/06/08 09:51:25;;;;;;;24.90;5.07;;;;;;;;;;5058676;28;20496;-63
2022/06/08 09:52:20;;;;;;;26.30;5.05;;;;;;;;;;5060376;28;20082;-63
2022/06/08 09:54:55;;;;;;;18.20;3.60;;;;;;;;;;5060253;28;20122;-63
2022/06/08 09:57:33;;;;;;;20.58;3.95;;;;;;;;;;5061936;28;20385;-63
2022/06/08 10:00:02;;;;;;;23.40;4.25;;;;;;;;;;5061091;28;20037;-63
2022/06/08 10:02:34;;;;;;;20.88;4.05;;;;;;;;;;5059537;28;20078;-63
2022/06/08 10:05:13;;;;;;;19.88;3.13;;;;;;;;;;5059065;28;20031;-63
2022/06/08 10:07:39;;;;;;;27.50;3.92;;;;;;;;;;5057967;28;20399;-63
2022/06/08 10:10:25;;;;;;;24.10;4.10;;;;;;;;;;5057777;28;20032;-63
2022/06/08 10:12:57;;;;;;;23.00;3.00;;;;;;;;;;5056638;28;20033;-63
2022/06/08 10:15:25;;;;;;;31.20;4.60;;;;;;;;;;5056626;28;20515;-63
2022/06/08 10:18:01;;;;;;;22.35;4.03;;;;;;;;;;5056932;28;20159;-63
2022/06/08 10:20:31;;;;;;;25.40;4.18;;;;;;;;;;5058096;28;20103;-63
2022/06/08 10:22:58;;;;;;;22.90;3.17;;;;;;;;;;5058467;28;20165;-62
2022/06/08 10:25:28;;;;;;;18.55;2.75;;;;;;;;;;5062804;28;20033;-62
2022/06/08 10:27:55;;;;;;;19.20;3.78;;;;;;;;;;5057110;28;20041;-62
2022/06/08 10:30:24;;;;;;;26.75;4.03;;;;;;;;;;5059135;28;20508;-62
2022/06/08 10:32:54;;;;;;;23.58;4.15;;;;;;;;;;5060192;28;20020;-62
2022/06/08 10:35:56;;;;;;;28.83;4.25;;;;;;;;;;5054874;28;20429;-62
2022/06/08 10:38:25;;;;;;;21.23;3.35;;;;;;;;;;5013559;28;20121;-62
2022/06/08 10:40:57;;;;;;;17.83;3.70;;;;;;;;;;5013142;28;20057;-62
2022/06/08 10:43:28;;;;;;;23.00;3.60;;;;;;;;;;5015217;28;20052;-62
2022/06/08 10:46:01;;;;;;;26.73;3.85;;;;;;;;;;5012989;28;20100;-61
2022/06/08 10:48:27;;;;;;;21.60;4.13;;;;;;;;;;5015354;28;20038;-61
2022/06/08 10:51:05;;;;;;;17.15;4.03;;;;;;;;;;5017689;28;20562;-61
2022/06/08 10:56:28;;;;;;;19.30;3.50;;;;;;;;;;5013885;28;20037;-62
2022/06/08 10:59:04;;;;;;;18.42;3.30;;;;;;;;;;5023534;28;20128;-62
2022/06/08 11:01:49;;;;;;;22.50;4.40;;;;;;;;;;5013303;28;20088;-62
2022/06/08 11:04:35;;;;;;;21.05;3.83;;;;;;;;;;5017738;28;20042;-62
2022/06/08 11:07:02;;;;;;;23.30;4.20;;;;;;;;;;5018415;28;20601;-62
2022/06/08 11:09:33;;;;;;;28.20;3.25;;;;;;;;;;5019569;28;20037;-62
2022/06/08 11:12:04;;;;;;;29.08;4.15;;;;;;;;;;5009150;28;20095;-62
2022/06/08 11:14:30;;;;;;;18.40;3.22;;;;;;;;;;5050426;28;20045;-62
2022/06/08 11:17:04;;;;;;;18.58;3.53;;;;;;;;;;5063977;28;20027;-62
2022/06/08 11:19:32;;;;;;;35.03;3.88;;;;;;;;;;5055886;28;20103;-62
2022/06/08 11:22:01;;;;;;;18.85;4.03;;;;;;;;;;5051646;28;20036;-62
2022/06/08 11:24:27;;;;;;;28.00;4.20;;;;;;;;;;5064076;28;20779;-62
2022/06/08 11:27:13;;;;;;;18.92;3.90;;;;;;;;;;5056748;28;20434;-62
2022/06/08 11:29:44;;;;;;;21.10;3.47;;;;;;;;;;5056378;28;20040;-62
2022/06/08 11:32:29;;;;;;;15.73;3.25;;;;;;;;;;5054893;28;20471;-62
2022/06/08 11:35:07;;;;;;;19.05;3.67;;;;;;;;;;5059932;28;20037;-62
2022/06/08 11:38:00;;;;;;;21.92;4.57;;;;;;;;;;5054432;28;20055;-62
2022/06/08 11:40:28;;;;;;;24.33;4.55;;;;;;;;;;5039930;28;20056;-62
2022/06/08 11:42:58;;;;;;;26.17;4.70;;;;;;;;;;5044598;28;20107;-61
2022/06/08 11:45:28;;;;;;;24.30;3.85;;;;;;;;;;5029073;28;20029;-62
2022/06/08 11:48:08;;;;;;;16.83;4.30;;;;;;;;;;5038042;28;20489;-62
2022/06/08 11:50:42;;;;;;;19.92;3.83;;;;;;;;;;5040279;28;20037;-62
2022/06/08 11:53:16;;;;;;;29.75;4.68;;;;;;;;;;5043164;28;20044;-62
2022/06/08 11:55:51;;;;;;;25.90;4.05;;;;;;;;;;5045917;28;20452;-62
2022/06/08 11:58:21;;;;;;;19.85;3.63;;;;;;;;;;5040701;28;20042;-62
2022/06/08 12:00:56;;;;;;;18.88;3.58;;;;;;;;;;5042548;28;20702;-62
2022/06/08 12:03:32;;;;;;;19.38;3.38;;;;;;;;;;5045800;28;20389;-62
2022/06/08 12:06:03;;;;;;;25.40;4.82;;;;;;;;;;5049326;28;20041;-62
2022/06/08 12:08:29;;;;;;;19.58;3.13;;;;;;;;;;5047376;28;20033;-62
2022/06/08 12:10:56;;;;;;;21.02;4.07;;;;;;;;;;5044331;28;20128;-62
2022/06/08 12:13:57;;;;;;;23.40;3.05;;;;;;;;;;5041228;28;20048;-62
2022/06/08 12:16:58;;;;;;;16.98;2.95;;;;;;;;;;5058624;28;20101;-62
2022/06/08 12:19:30;;;;;;;15.13;3.03;;;;;;;;;;5065004;28;20017;-62
2022/06/08 12:22:17;;;;;;;14.65;2.90;;;;;;;;;;5057024;28;20489;-62
2022/06/08 12:24:45;;;;;;;15.75;2.60;;;;;;;;;;5061154;28;20498;-62
2022/06/08 12:27:11;;;;;;;13.98;3.00;;;;;;;;;;5059144;28;20010;-62
2022/06/08 12:29:37;;;;;;;17.00;3.83;;;;;;;;;;5065537;28;20026;-62
2022/06/08 12:32:06;;;;;;;20.38;4.63;;;;;;;;;;5062606;28;20036;-62
2022/06/08 12:34:32;;;;;;;15.40;2.30;;;;;;;;;;5065345;28;20029;-62
2022/06/08 12:36:58;;;;;;;15.02;2.47;;;;;;;;;;5063167;28;20040;-62
2022/06/08 12:39:28;;;;;;;19.75;2.42;;;;;;;;;;5060556;28;20021;-62
2022/06/08 12:41:55;;;;;;;13.38;3.85;;;;;;;;;;5061489;28;20028;-62
2022/06/08 12:44:22;;;;;;;18.85;2.85;;;;;;;;;;5062341;28;20029;-62
2022/06/08 12:46:50;;;;;;;20.30;2.92;;;;;;;;;;5060613;28;20070;-62
2022/06/08 12:49:26;;;;;;;14.57;2.63;;;;;;;;;;5057301;28;20040;-62
2022/06/08 12:51:57;;;;;;;19.08;3.38;;;;;;;;;;5058709;28;20028;-62
2022/06/08 12:54:24;;;;;;;13.38;3.75;;;;;;;;;;5054142;28;20033;-62
2022/06/08 12:56:53;;;;;;;11.27;2.67;;;;;;;;;;5058674;28;20132;-62
2022/06/08 12:59:19;;;;;;;21.40;3.90;;;;;;;;;;5059689;28;20125;-62
2022/06/08 13:01:45;;;;;;;15.15;3.08;;;;;;;;;;5056180;28;20356;-62
2022/06/08 13:04:12;;;;;;;14.15;2.88;;;;;;;;;;5060915;28;20154;-62
2022/06/08 13:06:39;;;;;;;19.40;4.50;;;;;;;;;;5059608;28;20066;-62
2022/06/08 13:09:06;;;;;;;19.20;3.47;;;;;;;;;;5060466;28;20024;-62
2022/06/08 13:11:32;;;;;;;19.35;3.40;;;;;;;;;;5059673;28;20028;-62
2022/06/08 13:13:58;;;;;;;15.30;3.15;;;;;;;;;;5058514;28;20125;-62
2022/06/08 13:16:26;;;;;;;21.40;3.22;;;;;;;;;;5061050;28;20066;-62
2022/06/08 13:18:53;;;;;;;16.10;3.15;;;;;;;;;;5059808;28;20111;-62
2022/06/08 13:21:20;;;;;;;18.98;3.47;;;;;;;;;;5060625;28;20046;-62
2022/06/08 13:23:47;;;;;;;17.50;3.22;;;;;;;;;;5059347;28;20025;-62
2022/06/08 13:26:19;;;;;;;31.83;4.05;;;;;;;;;;5061457;28;20059;-62
2022/06/08 13:28:47;;;;;;;17.80;2.97;;;;;;;;;;5059533;28;20515;-62
2022/06/08 13:31:14;;;;;;;18.17;3.70;;;;;;;;;;5060546;28;20578;-62
2022/06/08 13:33:56;;;;;;;17.50;3.10;;;;;;;;;;5059215;28;20404;-61
2022/06/08 13:36:22;;;;;;;24.38;3.03;;;;;;;;;;5061147;28;20112;-62
2022/06/08 13:38:50;;;;;;;18.25;2.90;;;;;;;;;;5058307;28;20064;-62
2022/06/08 13:41:16;;;;;;;11.48;2.78;;;;;;;;;;5058592;28;20016;-62
2022/06/08 13:43:44;;;;;;;16.05;3.13;;;;;;;;;;5057660;28;20025;-62
2022/06/08 13:46:18;;;;;;;19.00;3.45;;;;;;;;;;5060572;28;20048;-62
2022/06/08 13:48:44;;;;;;;13.35;3.10;;;;;;;;;;5060854;28;20078;-62
2022/06/08 13:51:10;;;;;;;20.50;3.45;;;;;;;;;;5059882;28;20052;-62
2022/06/08 13:53:36;;;;;;;22.10;3.53;;;;;;;;;;5059086;28;20535;-62
2022/06/08 13:56:03;;;;;;;20.10;3.00;;;;;;;;;;5059850;28;20099;-62
2022/06/08 13:58:29;;;;;;;18.25;3.20;;;;;;;;;;5059851;28;20044;-62
2022/06/08 14:01:04;;;;;;;18.88;3.70;;;;;;;;;;5058217;28;20029;-62
2022/06/08 14:03:37;;;;;;;20.35;4.18;;;;;;;;;;5059218;28;20039;-62
2022/06/08 14:14:20;;;;;;;25.02;3.92;;;;;;;;;;5063042;28;20049;-61
2022/06/08 14:16:48;;;;;;;17.90;2.90;;;;;;;;;;5057847;28;20059;-61
2022/06/08 14:19:16;;;;;;;17.70;3.40;;;;;;;;;;5056565;28;20041;-60
2022/06/08 14:21:43;;;;;;;15.10;3.13;;;;;;;;;;5061499;28;20096;-60
2022/06/08 14:24:17;;;;;;;25.23;3.88;;;;;;;;;;5057992;28;20401;-60
2022/06/08 14:26:43;;;;;;;28.30;4.88;;;;;;;;;;5057432;28;20025;-60
2022/06/08 14:29:09;;;;;;;24.88;4.03;;;;;;;;;;5055966;28;20025;-60
2022/06/08 14:31:37;;;;;;;30.45;5.38;;;;;;;;;;5058906;28;20025;-60
2022/06/08 14:34:07;;;;;;;21.08;5.45;;;;;;;;;;5056002;28;21041;-60
2022/06/08 14:36:33;;;;;;;21.80;3.55;;;;;;;;;;5057818;28;20055;-60
2022/06/08 14:38:59;;;;;;;26.40;4.20;;;;;;;;;;5055319;28;20032;-60
2022/06/08 14:41:37;;;;;;;31.80;4.43;;;;;;;;;;5056335;28;20021;-60
2022/06/08 14:44:05;;;;;;;25.02;3.78;;;;;;;;;;5054668;28;20044;-60
2022/06/08 14:46:31;;;;;;;20.02;4.30;;;;;;;;;;5058136;28;20028;-60
2022/06/08 14:48:57;;;;;;;27.38;4.25;;;;;;;;;;5059726;28;20121;-60
2022/06/08 14:51:23;;;;;;;25.55;4.22;;;;;;;;;;5056540;28;20141;-60
2022/06/08 14:53:50;;;;;;;20.40;3.90;;;;;;;;;;5055239;28;20488;-60
2022/06/08 14:56:26;;;;;;;18.50;4.03;;;;;;;;;;5054788;28;20496;-60
2022/06/08 14:58:54;;;;;;;14.52;3.60;;;;;;;;;;5052972;28;20508;-60
2022/06/08 15:01:22;;;;;;;15.90;3.25;;;;;;;;;;5054069;28;20503;-60
2022/06/08 15:03:48;;;;;;;22.42;3.47;;;;;;;;;;5057461;28;20027;-61
2022/06/08 15:06:15;;;;;;;23.27;3.78;;;;;;;;;;5052603;28;20029;-60
2022/06/08 15:08:41;;;;;;;24.88;3.45;;;;;;;;;;5056814;28;20055;-60
2022/06/08 15:14:04;;;;;;;14.85;3.80;;;;;;;;;;5055689;28;20492;-60
2022/06/08 15:16:30;;;;;;;24.15;4.53;;;;;;;;;;5055785;28;20063;-60
2022/06/08 15:18:56;;;;;;;15.70;3.35;;;;;;;;;;5056755;28;20458;-60